Monday, September 24, 2018, 9:26 PM GMT
Back to Local

CYYY, Mont Joli, Que.

Location: , , Canada Lat: 48.6
Local Time: 9:26 PM GMT (21:26 GMT) Lon: -68.217
Time Zone: GMT Elev: 157 ft

Show me the last for .
Show Coded

Time T Td Feel RH Dir Speed Gust Alt SLP Vis Weather Sky Remarks
2018-09-24 21:00 50 21 47 31 220° 8 - 30.59 30.60 30 FEW250 None
2018-09-24 20:00 50 23 47 34 230° 7 - 30.59 30.60 30 FEW250 None
2018-09-24 19:00 50 27 46 39 230° 9 - 30.60 30.61 30 FEW030 None
2018-09-24 18:00 48 25 45 39 240° 8 - 30.62 30.63 30 FEW030 None
2018-09-24 17:00 45 28 41 52 250° 7 - 30.64 30.65 30 FEW030 None
2018-09-24 16:00 45 30 39 56 270° 12 - 30.65 30.66 30 FEW030 None
2018-09-24 15:00 43 30 37 60 270° 10 - 30.65 30.66 30 FEW020 None
2018-09-24 14:00 41 30 32 65 260° 10 17 30.65 30.66 30 FEW020 None
2018-09-24 13:00 41 32 36 70 280° 7 - 30.64 30.65 30 FEW020 None
2018-09-24 12:00 39 28 34 64 240° 7 - 30.62 30.63 30 CLR None
2018-09-24 11:00 37 28 30 69 300° 10 - 30.59 30.60 30 CLR None
2018-09-24 10:00 36 27 29 69 290° 9 - 30.56 30.57 15 CLR None
2018-09-24 09:00 32 27 29 80 200° 3 - 30.53 30.54 15 FEW035 None
2018-09-24 08:00 37 27 31 64 310° 9 - 30.50 30.51 15 FEW035 None
2018-09-24 07:00 39 27 32 60 310° 10 - 30.48 30.50 15 CLR None
2018-09-24 06:00 39 27 33 60 270° 9 - 30.46 30.47 15 CLR None
2018-09-24 05:00 39 27 32 60 260° 10 - 30.44 30.45 15 CLR None
2018-09-24 04:00 41 27 33 56 280° 14 - 30.42 30.43 15 CLR None
2018-09-24 03:00 41 28 35 60 300° 10 - 30.40 30.42 15 FEW075 None
2018-09-24 02:00 43 25 33 48 310° 18 25 30.38 30.39 15 FEW045 FEW075 None
2018-09-24 01:00 43 30 37 60 280° 10 - 30.35 30.37 15 FEW045 None
2018-09-24 00:00 41 28 35 60 300° 10 - 30.32 30.33 15 FEW040 None
2018-09-23 23:00 43 27 37 52 310° 10 - 30.29 30.30 15 FEW045 None
2018-09-23 22:00 45 30 42 56 280° 5 - 30.26 30.27 30 FEW045 None

Support USWX by starting your Amazon purchase here.